sensor_id;sensor_type;location;lat;lon;timestamp;temperature;humidity
19248;DHT22;9758;48.640;8.148;2022-11-20T00:01:16;10.10;60.80
19248;DHT22;9758;48.640;8.148;2022-11-20T00:03:44;10.10;60.80
19248;DHT22;9758;48.640;8.148;2022-11-20T00:06:13;10.10;60.80
19248;DHT22;9758;48.640;8.148;2022-11-20T00:08:41;10.10;60.80
19248;DHT22;9758;48.640;8.148;2022-11-20T00:11:10;10.20;60.80
19248;DHT22;9758;48.640;8.148;2022-11-20T00:13:38;10.20;60.80
19248;DHT22;9758;48.640;8.148;2022-11-20T00:16:07;10.20;60.90
19248;DHT22;9758;48.640;8.148;2022-11-20T00:18:35;10.20;60.70
19248;DHT22;9758;48.640;8.148;2022-11-20T00:21:03;10.20;60.80
19248;DHT22;9758;48.640;8.148;2022-11-20T00:23:30;10.30;60.70
19248;DHT22;9758;48.640;8.148;2022-11-20T00:26:01;10.30;60.70
19248;DHT22;9758;48.640;8.148;2022-11-20T00:28:28;10.30;60.70
19248;DHT22;9758;48.640;8.148;2022-11-20T00:31:00;10.30;60.70
19248;DHT22;9758;48.640;8.148;2022-11-20T00:33:29;10.30;60.70
19248;DHT22;9758;48.640;8.148;2022-11-20T00:35:59;10.40;60.70
19248;DHT22;9758;48.640;8.148;2022-11-20T00:38:26;10.40;60.70
19248;DHT22;9758;48.640;8.148;2022-11-20T00:40:55;10.50;60.60
19248;DHT22;9758;48.640;8.148;2022-11-20T00:43:35;10.50;60.50
19248;DHT22;9758;48.640;8.148;2022-11-20T00:46:05;10.50;60.40
19248;DHT22;9758;48.640;8.148;2022-11-20T00:48:33;10.50;60.40
19248;DHT22;9758;48.640;8.148;2022-11-20T00:51:00;10.50;60.40
19248;DHT22;9758;48.640;8.148;2022-11-20T00:53:27;10.50;60.30
19248;DHT22;9758;48.640;8.148;2022-11-20T00:55:55;10.50;60.20
19248;DHT22;9758;48.640;8.148;2022-11-20T00:58:22;10.50;60.40
19248;DHT22;9758;48.640;8.148;2022-11-20T01:00:50;10.50;60.50
19248;DHT22;9758;48.640;8.148;2022-11-20T01:03:17;10.50;60.40
19248;DHT22;9758;48.640;8.148;2022-11-20T01:05:45;10.50;60.50
19248;DHT22;9758;48.640;8.148;2022-11-20T01:08:12;10.50;60.50
19248;DHT22;9758;48.640;8.148;2022-11-20T01:10:39;10.40;60.40
19248;DHT22;9758;48.640;8.148;2022-11-20T01:13:06;10.50;60.40
19248;DHT22;9758;48.640;8.148;2022-11-20T01:15:50;10.50;60.50
19248;DHT22;9758;48.640;8.148;2022-11-20T01:18:17;10.50;60.40
19248;DHT22;9758;48.640;8.148;2022-11-20T01:20:45;10.50;60.40
19248;DHT22;9758;48.640;8.148;2022-11-20T01:23:12;10.50;60.40
19248;DHT22;9758;48.640;8.148;2022-11-20T01:25:39;10.50;60.40
19248;DHT22;9758;48.640;8.148;2022-11-20T01:28:06;10.50;60.40
19248;DHT22;9758;48.640;8.148;2022-11-20T01:30:33;10.50;60.50
19248;DHT22;9758;48.640;8.148;2022-11-20T01:33:00;10.50;60.40
19248;DHT22;9758;48.640;8.148;2022-11-20T01:35:27;10.50;60.20
19248;DHT22;9758;48.640;8.148;2022-11-20T01:37:55;10.40;60.20
19248;DHT22;9758;48.640;8.148;2022-11-20T01:40:22;10.40;60.10
19248;DHT22;9758;48.640;8.148;2022-11-20T01:42:59;10.40;60.30
19248;DHT22;9758;48.640;8.148;2022-11-20T01:46:14;10.30;60.40
19248;DHT22;9758;48.640;8.148;2022-11-20T01:48:46;10.30;60.40
19248;DHT22;9758;48.640;8.148;2022-11-20T01:51:21;10.30;60.40
19248;DHT22;9758;48.640;8.148;2022-11-20T01:53:53;10.20;60.40
19248;DHT22;9758;48.640;8.148;2022-11-20T01:56:20;10.20;60.50
19248;DHT22;9758;48.640;8.148;2022-11-20T01:58:50;10.20;60.50
19248;DHT22;9758;48.640;8.148;2022-11-20T02:01:18;10.20;60.50
19248;DHT22;9758;48.640;8.148;2022-11-20T02:03:44;10.20;60.50
19248;DHT22;9758;48.640;8.148;2022-11-20T02:06:16;10.30;60.50
19248;DHT22;9758;48.640;8.148;2022-11-20T02:08:43;10.30;60.50
19248;DHT22;9758;48.640;8.148;2022-11-20T02:11:11;10.30;60.40
19248;DHT22;9758;48.640;8.148;2022-11-20T02:13:39;10.30;60.40
19248;DHT22;9758;48.640;8.148;2022-11-20T02:16:11;10.30;60.40
19248;DHT22;9758;48.640;8.148;2022-11-20T02:18:39;10.30;60.20
19248;DHT22;9758;48.640;8.148;2022-11-20T02:21:11;10.30;60.40
19248;DHT22;9758;48.640;8.148;2022-11-20T02:23:57;10.30;60.30
19248;DHT22;9758;48.640;8.148;2022-11-20T02:26:26;10.30;61.10
19248;DHT22;9758;48.640;8.148;2022-11-20T02:28:54;10.30;60.30
19248;DHT22;9758;48.640;8.148;2022-11-20T02:31:21;10.30;60.40
19248;DHT22;9758;48.640;8.148;2022-11-20T02:33:53;10.30;60.40
19248;DHT22;9758;48.640;8.148;2022-11-20T02:36:20;10.30;60.40
19248;DHT22;9758;48.640;8.148;2022-11-20T02:38:47;10.30;60.40
19248;DHT22;9758;48.640;8.148;2022-11-20T02:41:16;10.40;60.40
19248;DHT22;9758;48.640;8.148;2022-11-20T02:43:43;10.40;60.40
19248;DHT22;9758;48.640;8.148;2022-11-20T02:46:09;10.40;60.30
19248;DHT22;9758;48.640;8.148;2022-11-20T02:48:36;10.30;60.30
19248;DHT22;9758;48.640;8.148;2022-11-20T02:51:03;10.40;60.40
19248;DHT22;9758;48.640;8.148;2022-11-20T02:53:30;10.40;60.30
19248;DHT22;9758;48.640;8.148;2022-11-20T02:55:56;10.40;60.30
19248;DHT22;9758;48.640;8.148;2022-11-20T02:58:25;10.40;60.30
19248;DHT22;9758;48.640;8.148;2022-11-20T03:00:52;10.40;60.30
19248;DHT22;9758;48.640;8.148;2022-11-20T03:03:18;10.40;60.10
19248;DHT22;9758;48.640;8.148;2022-11-20T03:05:45;10.30;60.20
19248;DHT22;9758;48.640;8.148;2022-11-20T03:08:12;10.30;60.30
19248;DHT22;9758;48.640;8.148;2022-11-20T03:10:39;10.30;60.30
19248;DHT22;9758;48.640;8.148;2022-11-20T03:13:05;10.40;60.40
19248;DHT22;9758;48.640;8.148;2022-11-20T03:15:35;10.40;60.30
19248;DHT22;9758;48.640;8.148;2022-11-20T03:18:02;10.30;60.30
19248;DHT22;9758;48.640;8.148;2022-11-20T03:20:29;10.40;60.30
19248;DHT22;9758;48.640;8.148;2022-11-20T03:22:56;10.30;60.20
19248;DHT22;9758;48.640;8.148;2022-11-20T03:25:23;10.40;60.30
19248;DHT22;9758;48.640;8.148;2022-11-20T03:27:49;10.30;60.20
19248;DHT22;9758;48.640;8.148;2022-11-20T03:30:16;10.30;60.30
19248;DHT22;9758;48.640;8.148;2022-11-20T03:32:45;10.30;60.30
19248;DHT22;9758;48.640;8.148;2022-11-20T03:35:12;10.30;60.20
19248;DHT22;9758;48.640;8.148;2022-11-20T03:37:38;10.30;60.30
19248;DHT22;9758;48.640;8.148;2022-11-20T03:40:06;10.30;60.30
19248;DHT22;9758;48.640;8.148;2022-11-20T03:42:33;10.30;60.20
19248;DHT22;9758;48.640;8.148;2022-11-20T03:45:12;10.30;60.40
19248;DHT22;9758;48.640;8.148;2022-11-20T03:47:39;10.30;60.40
19248;DHT22;9758;48.640;8.148;2022-11-20T03:50:08;10.30;60.40
19248;DHT22;9758;48.640;8.148;2022-11-20T03:52:35;10.30;60.40
19248;DHT22;9758;48.640;8.148;2022-11-20T03:55:02;10.30;60.30
19248;DHT22;9758;48.640;8.148;2022-11-20T03:57:29;10.30;60.30
19248;DHT22;9758;48.640;8.148;2022-11-20T03:59:56;10.30;60.40
19248;DHT22;9758;48.640;8.148;2022-11-20T04:02:22;10.30;60.40
19248;DHT22;9758;48.640;8.148;2022-11-20T04:04:49;10.30;60.30
19248;DHT22;9758;48.640;8.148;2022-11-20T04:07:17;10.30;60.20
19248;DHT22;9758;48.640;8.148;2022-11-20T04:09:44;10.30;60.30
19248;DHT22;9758;48.640;8.148;2022-11-20T04:12:11;10.30;60.20
19248;DHT22;9758;48.640;8.148;2022-11-20T04:14:37;10.30;60.20
19248;DHT22;9758;48.640;8.148;2022-11-20T04:17:04;10.30;60.30
19248;DHT22;9758;48.640;8.148;2022-11-20T04:19:31;10.30;60.30
19248;DHT22;9758;48.640;8.148;2022-11-20T04:21:58;10.30;60.30
19248;DHT22;9758;48.640;8.148;2022-11-20T04:24:26;10.30;60.20
19248;DHT22;9758;48.640;8.148;2022-11-20T04:26:53;10.30;60.20
19248;DHT22;9758;48.640;8.148;2022-11-20T04:29:19;10.30;60.20
19248;DHT22;9758;48.640;8.148;2022-11-20T04:31:46;10.30;60.20
19248;DHT22;9758;48.640;8.148;2022-11-20T04:34:13;10.30;60.10
19248;DHT22;9758;48.640;8.148;2022-11-20T04:36:40;10.30;60.20
19248;DHT22;9758;48.640;8.148;2022-11-20T04:39:12;10.30;60.20
19248;DHT22;9758;48.640;8.148;2022-11-20T04:41:40;10.30;60.20
19248;DHT22;9758;48.640;8.148;2022-11-20T04:44:07;10.20;60.20
19248;DHT22;9758;48.640;8.148;2022-11-20T04:46:36;10.30;60.30
19248;DHT22;9758;48.640;8.148;2022-11-20T04:49:03;10.30;60.10
19248;DHT22;9758;48.640;8.148;2022-11-20T04:51:30;10.30;60.10
19248;DHT22;9758;48.640;8.148;2022-11-20T04:53:57;10.20;60.20
19248;DHT22;9758;48.640;8.148;2022-11-20T04:56:23;10.20;60.20
19248;DHT22;9758;48.640;8.148;2022-11-20T04:58:52;10.30;60.30
19248;DHT22;9758;48.640;8.148;2022-11-20T05:01:20;10.20;60.20
19248;DHT22;9758;48.640;8.148;2022-11-20T05:03:48;10.30;60.20
19248;DHT22;9758;48.640;8.148;2022-11-20T05:06:18;10.30;60.20
19248;DHT22;9758;48.640;8.148;2022-11-20T05:08:45;10.20;60.20
19248;DHT22;9758;48.640;8.148;2022-11-20T05:11:13;10.20;60.10
19248;DHT22;9758;48.640;8.148;2022-11-20T05:13:41;10.20;60.20
19248;DHT22;9758;48.640;8.148;2022-11-20T05:16:10;10.20;60.10
19248;DHT22;9758;48.640;8.148;2022-11-20T05:18:38;10.20;60.10
19248;DHT22;9758;48.640;8.148;2022-11-20T05:21:06;10.20;60.20
19248;DHT22;9758;48.640;8.148;2022-11-20T05:23:33;10.20;60.10
19248;DHT22;9758;48.640;8.148;2022-11-20T05:26:01;10.20;60.10
19248;DHT22;9758;48.640;8.148;2022-11-20T05:28:29;10.20;60.10
19248;DHT22;9758;48.640;8.148;2022-11-20T05:31:04;10.30;60.20
19248;DHT22;9758;48.640;8.148;2022-11-20T05:33:33;10.20;60.10
19248;DHT22;9758;48.640;8.148;2022-11-20T05:35:59;10.30;60.10
19248;DHT22;9758;48.640;8.148;2022-11-20T05:38:26;10.30;60.20
19248;DHT22;9758;48.640;8.148;2022-11-20T05:40:53;10.20;60.10
19248;DHT22;9758;48.640;8.148;2022-11-20T05:43:20;10.20;60.10
19248;DHT22;9758;48.640;8.148;2022-11-20T05:45:52;10.20;60.10
19248;DHT22;9758;48.640;8.148;2022-11-20T05:48:19;10.20;60.20
19248;DHT22;9758;48.640;8.148;2022-11-20T05:50:47;10.20;60.20
19248;DHT22;9758;48.640;8.148;2022-11-20T05:53:14;10.20;60.20
19248;DHT22;9758;48.640;8.148;2022-11-20T05:55:41;10.20;60.20
19248;DHT22;9758;48.640;8.148;2022-11-20T05:58:07;10.20;60.00
19248;DHT22;9758;48.640;8.148;2022-11-20T06:00:34;10.20;60.10
19248;DHT22;9758;48.640;8.148;2022-11-20T06:03:01;10.20;60.10
19248;DHT22;9758;48.640;8.148;2022-11-20T06:05:28;10.20;59.90
19248;DHT22;9758;48.640;8.148;2022-11-20T06:07:56;10.20;60.10
19248;DHT22;9758;48.640;8.148;2022-11-20T06:10:23;10.20;60.10
19248;DHT22;9758;48.640;8.148;2022-11-20T06:12:49;10.20;60.10
19248;DHT22;9758;48.640;8.148;2022-11-20T06:15:16;10.10;60.10
19248;DHT22;9758;48.640;8.148;2022-11-20T06:17:43;10.20;60.20
19248;DHT22;9758;48.640;8.148;2022-11-20T06:20:10;10.20;60.20
19248;DHT22;9758;48.640;8.148;2022-11-20T06:22:37;10.10;60.20
19248;DHT22;9758;48.640;8.148;2022-11-20T06:25:05;10.20;60.10
19248;DHT22;9758;48.640;8.148;2022-11-20T06:27:32;10.20;60.20
19248;DHT22;9758;48.640;8.148;2022-11-20T06:29:59;10.20;60.20
19248;DHT22;9758;48.640;8.148;2022-11-20T06:32:26;10.20;60.20
19248;DHT22;9758;48.640;8.148;2022-11-20T06:34:52;10.20;60.10
19248;DHT22;9758;48.640;8.148;2022-11-20T06:37:19;10.20;59.90
19248;DHT22;9758;48.640;8.148;2022-11-20T06:39:46;10.10;60.00
19248;DHT22;9758;48.640;8.148;2022-11-20T06:42:14;10.10;60.20
19248;DHT22;9758;48.640;8.148;2022-11-20T06:44:41;10.10;60.30
19248;DHT22;9758;48.640;8.148;2022-11-20T06:47:08;10.10;60.30
19248;DHT22;9758;48.640;8.148;2022-11-20T06:49:35;10.10;60.30
19248;DHT22;9758;48.640;8.148;2022-11-20T06:52:03;10.20;60.40
19248;DHT22;9758;48.640;8.148;2022-11-20T06:54:30;10.20;60.40
19248;DHT22;9758;48.640;8.148;2022-11-20T06:56:57;10.10;60.20
19248;DHT22;9758;48.640;8.148;2022-11-20T06:59:25;10.20;60.40
19248;DHT22;9758;48.640;8.148;2022-11-20T07:01:52;10.20;60.40
19248;DHT22;9758;48.640;8.148;2022-11-20T07:04:19;10.20;60.20
19248;DHT22;9758;48.640;8.148;2022-11-20T07:06:46;10.20;60.10
19248;DHT22;9758;48.640;8.148;2022-11-20T07:09:13;10.10;60.20
19248;DHT22;9758;48.640;8.148;2022-11-20T07:11:39;10.10;60.30
19248;DHT22;9758;48.640;8.148;2022-11-20T07:14:06;10.10;60.40
19248;DHT22;9758;48.640;8.148;2022-11-20T07:16:34;10.10;60.40
19248;DHT22;9758;48.640;8.148;2022-11-20T07:19:01;10.10;60.40
19248;DHT22;9758;48.640;8.148;2022-11-20T07:21:28;10.10;60.40
19248;DHT22;9758;48.640;8.148;2022-11-20T07:23:55;10.10;60.50
19248;DHT22;9758;48.640;8.148;2022-11-20T07:26:22;10.10;60.50
19248;DHT22;9758;48.640;8.148;2022-11-20T07:28:49;10.20;60.50
19248;DHT22;9758;48.640;8.148;2022-11-20T07:31:15;10.20;60.50
19248;DHT22;9758;48.640;8.148;2022-11-20T07:34:01;10.20;60.50
19248;DHT22;9758;48.640;8.148;2022-11-20T07:36:28;10.20;60.70
19248;DHT22;9758;48.640;8.148;2022-11-20T07:38:54;10.10;60.50
19248;DHT22;9758;48.640;8.148;2022-11-20T07:41:21;10.10;60.60
19248;DHT22;9758;48.640;8.148;2022-11-20T07:43:48;10.10;60.70
19248;DHT22;9758;48.640;8.148;2022-11-20T07:46:15;10.10;60.60
19248;DHT22;9758;48.640;8.148;2022-11-20T07:48:41;10.10;60.60
19248;DHT22;9758;48.640;8.148;2022-11-20T07:51:10;10.00;60.60
19248;DHT22;9758;48.640;8.148;2022-11-20T07:53:36;10.00;60.70
19248;DHT22;9758;48.640;8.148;2022-11-20T07:56:03;10.00;60.80
19248;DHT22;9758;48.640;8.148;2022-11-20T07:58:31;10.00;60.80
19248;DHT22;9758;48.640;8.148;2022-11-20T08:01:02;10.00;60.80
19248;DHT22;9758;48.640;8.148;2022-11-20T08:03:29;10.00;60.80
19248;DHT22;9758;48.640;8.148;2022-11-20T08:05:58;9.90;60.70
19248;DHT22;9758;48.640;8.148;2022-11-20T08:08:27;9.90;60.90
19248;DHT22;9758;48.640;8.148;2022-11-20T08:10:54;9.90;60.90
19248;DHT22;9758;48.640;8.148;2022-11-20T08:13:43;9.90;60.90
19248;DHT22;9758;48.640;8.148;2022-11-20T08:16:27;9.90;60.90
19248;DHT22;9758;48.640;8.148;2022-11-20T08:18:54;9.90;60.90
19248;DHT22;9758;48.640;8.148;2022-11-20T08:21:21;9.90;61.00
19248;DHT22;9758;48.640;8.148;2022-11-20T08:23:50;9.80;61.10
19248;DHT22;9758;48.640;8.148;2022-11-20T08:26:17;9.90;61.10
19248;DHT22;9758;48.640;8.148;2022-11-20T08:28:44;9.90;61.20
19248;DHT22;9758;48.640;8.148;2022-11-20T08:31:11;9.90;61.20
19248;DHT22;9758;48.640;8.148;2022-11-20T08:33:37;9.80;61.10
19248;DHT22;9758;48.640;8.148;2022-11-20T08:36:05;9.90;61.20
19248;DHT22;9758;48.640;8.148;2022-11-20T08:38:32;9.90;61.10
19248;DHT22;9758;48.640;8.148;2022-11-20T08:41:03;9.90;61.10
19248;DHT22;9758;48.640;8.148;2022-11-20T08:43:47;9.90;61.20
19248;DHT22;9758;48.640;8.148;2022-11-20T08:46:14;9.90;62.00
19248;DHT22;9758;48.640;8.148;2022-11-20T08:48:41;9.90;61.20
19248;DHT22;9758;48.640;8.148;2022-11-20T08:51:08;9.80;61.20
19248;DHT22;9758;48.640;8.148;2022-11-20T08:53:35;9.90;61.20
19248;DHT22;9758;48.640;8.148;2022-11-20T08:56:03;9.90;61.30
19248;DHT22;9758;48.640;8.148;2022-11-20T08:58:30;9.90;61.40
19248;DHT22;9758;48.640;8.148;2022-11-20T09:00:57;9.90;61.20
19248;DHT22;9758;48.640;8.148;2022-11-20T09:03:24;9.90;61.30
19248;DHT22;9758;48.640;8.148;2022-11-20T09:05:57;9.90;61.20
19248;DHT22;9758;48.640;8.148;2022-11-20T09:08:24;9.90;61.40
19248;DHT22;9758;48.640;8.148;2022-11-20T09:10:51;9.90;61.40
19248;DHT22;9758;48.640;8.148;2022-11-20T09:13:20;9.90;61.30
19248;DHT22;9758;48.640;8.148;2022-11-20T09:15:47;9.90;61.30
19248;DHT22;9758;48.640;8.148;2022-11-20T09:18:13;10.00;61.40
19248;DHT22;9758;48.640;8.148;2022-11-20T09:20:40;10.00;61.40
19248;DHT22;9758;48.640;8.148;2022-11-20T09:23:07;10.00;61.30
19248;DHT22;9758;48.640;8.148;2022-11-20T09:25:34;10.00;61.30
19248;DHT22;9758;48.640;8.148;2022-11-20T09:28:01;10.10;61.30
19248;DHT22;9758;48.640;8.148;2022-11-20T09:30:30;10.10;61.60
19248;DHT22;9758;48.640;8.148;2022-11-20T09:32:57;10.10;61.40
19248;DHT22;9758;48.640;8.148;2022-11-20T09:35:24;10.20;61.40
19248;DHT22;9758;48.640;8.148;2022-11-20T09:37:50;10.20;61.40
19248;DHT22;9758;48.640;8.148;2022-11-20T09:40:20;10.20;61.30
19248;DHT22;9758;48.640;8.148;2022-11-20T09:42:52;10.30;61.30
19248;DHT22;9758;48.640;8.148;2022-11-20T09:45:34;10.30;61.30
19248;DHT22;9758;48.640;8.148;2022-11-20T09:48:20;10.30;61.30
19248;DHT22;9758;48.640;8.148;2022-11-20T09:50:55;10.30;61.20
19248;DHT22;9758;48.640;8.148;2022-11-20T09:53:28;10.30;61.30
19248;DHT22;9758;48.640;8.148;2022-11-20T09:55:56;10.30;61.30
19248;DHT22;9758;48.640;8.148;2022-11-20T09:58:28;10.30;61.20
19248;DHT22;9758;48.640;8.148;2022-11-20T10:01:05;10.30;61.20
19248;DHT22;9758;48.640;8.148;2022-11-20T10:03:39;10.40;61.10
19248;DHT22;9758;48.640;8.148;2022-11-20T10:06:13;10.40;61.20
19248;DHT22;9758;48.640;8.148;2022-11-20T10:08:45;10.40;61.30
19248;DHT22;9758;48.640;8.148;2022-11-20T10:11:20;10.40;61.40
19248;DHT22;9758;48.640;8.148;2022-11-20T10:13:57;10.40;61.40
19248;DHT22;9758;48.640;8.148;2022-11-20T10:16:38;10.40;61.40
19248;DHT22;9758;48.640;8.148;2022-11-20T10:19:21;10.50;61.30
19248;DHT22;9758;48.640;8.148;2022-11-20T10:21:58;10.50;61.30
19248;DHT22;9758;48.640;8.148;2022-11-20T10:24:51;10.60;61.20
19248;DHT22;9758;48.640;8.148;2022-11-20T10:27:45;10.60;61.20
19248;DHT22;9758;48.640;8.148;2022-11-20T10:30:17;10.70;61.10
19248;DHT22;9758;48.640;8.148;2022-11-20T10:32:48;10.70;61.00
19248;DHT22;9758;48.640;8.148;2022-11-20T10:35:20;10.70;61.00
19248;DHT22;9758;48.640;8.148;2022-11-20T10:37:51;10.70;61.10
19248;DHT22;9758;48.640;8.148;2022-11-20T10:40:23;10.80;61.10
19248;DHT22;9758;48.640;8.148;2022-11-20T10:42:56;10.80;61.00
19248;DHT22;9758;48.640;8.148;2022-11-20T10:45:56;10.80;60.90
19248;DHT22;9758;48.640;8.148;2022-11-20T10:48:26;10.80;60.80
19248;DHT22;9758;48.640;8.148;2022-11-20T10:51:12;10.80;60.70
19248;DHT22;9758;48.640;8.148;2022-11-20T10:53:54;10.80;60.80
19248;DHT22;9758;48.640;8.148;2022-11-20T10:56:27;10.80;60.80
19248;DHT22;9758;48.640;8.148;2022-11-20T10:59:37;10.80;60.80
19248;DHT22;9758;48.640;8.148;2022-11-20T11:02:19;10.90;60.90
19248;DHT22;9758;48.640;8.148;2022-11-20T11:04:50;10.90;60.70
19248;DHT22;9758;48.640;8.148;2022-11-20T11:07:21;10.90;60.80
19248;DHT22;9758;48.640;8.148;2022-11-20T11:09:50;10.90;61.10
19248;DHT22;9758;48.640;8.148;2022-11-20T11:12:19;10.90;60.90
19248;DHT22;9758;48.640;8.148;2022-11-20T11:14:48;11.00;60.90
19248;DHT22;9758;48.640;8.148;2022-11-20T11:17:23;11.00;60.80
19248;DHT22;9758;48.640;8.148;2022-11-20T11:20:14;11.00;60.80
19248;DHT22;9758;48.640;8.148;2022-11-20T11:22:44;11.10;61.00
19248;DHT22;9758;48.640;8.148;2022-11-20T11:25:28;11.20;61.00
19248;DHT22;9758;48.640;8.148;2022-11-20T11:28:00;11.30;61.00
19248;DHT22;9758;48.640;8.148;2022-11-20T11:30:28;11.40;60.70
19248;DHT22;9758;48.640;8.148;2022-11-20T11:33:04;11.40;60.70
19248;DHT22;9758;48.640;8.148;2022-11-20T11:35:38;11.50;60.50
19248;DHT22;9758;48.640;8.148;2022-11-20T11:38:10;11.50;60.40
19248;DHT22;9758;48.640;8.148;2022-11-20T11:40:40;11.50;60.40
19248;DHT22;9758;48.640;8.148;2022-11-20T11:43:17;11.50;60.40
19248;DHT22;9758;48.640;8.148;2022-11-20T11:45:59;11.50;60.40
19248;DHT22;9758;48.640;8.148;2022-11-20T11:48:25;11.60;60.40
19248;DHT22;9758;48.640;8.148;2022-11-20T11:50:54;11.60;60.50
19248;DHT22;9758;48.640;8.148;2022-11-20T11:53:22;11.70;60.50
19248;DHT22;9758;48.640;8.148;2022-11-20T11:55:54;11.80;60.20
19248;DHT22;9758;48.640;8.148;2022-11-20T11:58:39;11.80;60.20
19248;DHT22;9758;48.640;8.148;2022-11-20T12:01:20;11.80;60.10
19248;DHT22;9758;48.640;8.148;2022-11-20T12:04:02;11.80;60.00
19248;DHT22;9758;48.640;8.148;2022-11-20T12:06:33;11.80;59.90
19248;DHT22;9758;48.640;8.148;2022-11-20T12:09:04;11.80;60.00
19248;DHT22;9758;48.640;8.148;2022-11-20T12:11:34;11.80;60.00
19248;DHT22;9758;48.640;8.148;2022-11-20T12:14:11;11.80;60.00
19248;DHT22;9758;48.640;8.148;2022-11-20T12:16:39;11.80;59.90
19248;DHT22;9758;48.640;8.148;2022-11-20T12:19:10;11.70;60.00
19248;DHT22;9758;48.640;8.148;2022-11-20T12:21:47;11.70;59.90
19248;DHT22;9758;48.640;8.148;2022-11-20T12:24:36;11.70;59.80
19248;DHT22;9758;48.640;8.148;2022-11-20T12:27:32;11.70;59.70
19248;DHT22;9758;48.640;8.148;2022-11-20T12:30:06;11.70;59.90
19248;DHT22;9758;48.640;8.148;2022-11-20T12:33:07;11.70;60.00
19248;DHT22;9758;48.640;8.148;2022-11-20T12:35:44;11.70;60.00
19248;DHT22;9758;48.640;8.148;2022-11-20T12:41:22;11.70;59.70
19248;DHT22;9758;48.640;8.148;2022-11-20T12:44:21;11.70;59.80
19248;DHT22;9758;48.640;8.148;2022-11-20T12:47:17;11.70;59.20
19248;DHT22;9758;48.640;8.148;2022-11-20T12:49:54;11.70;59.50
19248;DHT22;9758;48.640;8.148;2022-11-20T12:52:35;11.70;59.60
19248;DHT22;9758;48.640;8.148;2022-11-20T12:55:21;11.70;59.30
19248;DHT22;9758;48.640;8.148;2022-11-20T12:57:54;11.60;59.00
19248;DHT22;9758;48.640;8.148;2022-11-20T13:00:25;11.60;58.60
19248;DHT22;9758;48.640;8.148;2022-11-20T13:03:21;11.50;59.30
19248;DHT22;9758;48.640;8.148;2022-11-20T13:05:58;11.50;59.40
19248;DHT22;9758;48.640;8.148;2022-11-20T13:08:29;11.60;59.50
19248;DHT22;9758;48.640;8.148;2022-11-20T13:11:03;11.60;59.30
19248;DHT22;9758;48.640;8.148;2022-11-20T13:13:43;11.60;59.20
19248;DHT22;9758;48.640;8.148;2022-11-20T13:16:16;11.60;59.10
19248;DHT22;9758;48.640;8.148;2022-11-20T13:18:45;11.50;59.00
19248;DHT22;9758;48.640;8.148;2022-11-20T13:21:17;11.60;59.20
19248;DHT22;9758;48.640;8.148;2022-11-20T13:23:44;11.60;58.50
19248;DHT22;9758;48.640;8.148;2022-11-20T13:26:18;11.60;58.90
19248;DHT22;9758;48.640;8.148;2022-11-20T13:28:46;11.60;58.90
19248;DHT22;9758;48.640;8.148;2022-11-20T13:31:30;11.70;59.10
19248;DHT22;9758;48.640;8.148;2022-11-20T13:33:58;11.70;59.40
19248;DHT22;9758;48.640;8.148;2022-11-20T13:36:33;11.80;59.30
19248;DHT22;9758;48.640;8.148;2022-11-20T13:39:02;11.90;59.20
19248;DHT22;9758;48.640;8.148;2022-11-20T13:41:32;12.00;58.60
19248;DHT22;9758;48.640;8.148;2022-11-20T13:44:10;11.90;58.60
19248;DHT22;9758;48.640;8.148;2022-11-20T13:46:39;12.00;58.50
19248;DHT22;9758;48.640;8.148;2022-11-20T13:49:09;12.00;58.70
19248;DHT22;9758;48.640;8.148;2022-11-20T13:51:42;12.00;58.80
19248;DHT22;9758;48.640;8.148;2022-11-20T13:57:21;12.00;58.40
19248;DHT22;9758;48.640;8.148;2022-11-20T13:59:57;11.90;58.00
19248;DHT22;9758;48.640;8.148;2022-11-20T14:02:27;11.80;57.70
19248;DHT22;9758;48.640;8.148;2022-11-20T14:04:58;11.80;58.40
19248;DHT22;9758;48.640;8.148;2022-11-20T14:07:32;11.80;58.60
19248;DHT22;9758;48.640;8.148;2022-11-20T14:10:01;11.90;58.70
19248;DHT22;9758;48.640;8.148;2022-11-20T14:12:31;12.00;58.80
19248;DHT22;9758;48.640;8.148;2022-11-20T14:14:58;12.10;58.20
19248;DHT22;9758;48.640;8.148;2022-11-20T14:17:31;12.10;58.20
19248;DHT22;9758;48.640;8.148;2022-11-20T14:20:00;12.10;58.30
19248;DHT22;9758;48.640;8.148;2022-11-20T14:22:28;12.20;58.20
19248;DHT22;9758;48.640;8.148;2022-11-20T14:25:04;12.20;58.10
19248;DHT22;9758;48.640;8.148;2022-11-20T14:27:36;12.20;58.10
19248;DHT22;9758;48.640;8.148;2022-11-20T14:30:04;12.20;58.20
19248;DHT22;9758;48.640;8.148;2022-11-20T14:32:41;12.20;58.20
19248;DHT22;9758;48.640;8.148;2022-11-20T14:35:10;12.20;58.10
19248;DHT22;9758;48.640;8.148;2022-11-20T14:37:40;12.20;57.80
19248;DHT22;9758;48.640;8.148;2022-11-20T14:40:23;12.20;57.90
19248;DHT22;9758;48.640;8.148;2022-11-20T14:42:52;12.10;57.70
19248;DHT22;9758;48.640;8.148;2022-11-20T14:45:19;12.10;57.80
19248;DHT22;9758;48.640;8.148;2022-11-20T14:47:46;12.00;57.70
19248;DHT22;9758;48.640;8.148;2022-11-20T14:50:18;12.00;57.80
19248;DHT22;9758;48.640;8.148;2022-11-20T14:53:02;11.90;57.70
19248;DHT22;9758;48.640;8.148;2022-11-20T14:55:30;11.80;57.70
19248;DHT22;9758;48.640;8.148;2022-11-20T14:58:00;11.80;57.80
19248;DHT22;9758;48.640;8.148;2022-11-20T15:00:28;11.70;57.80
19248;DHT22;9758;48.640;8.148;2022-11-20T15:02:55;11.70;57.70
19248;DHT22;9758;48.640;8.148;2022-11-20T15:05:23;11.60;57.70
19248;DHT22;9758;48.640;8.148;2022-11-20T15:08:03;11.50;57.80
19248;DHT22;9758;48.640;8.148;2022-11-20T15:10:30;11.50;57.90
19248;DHT22;9758;48.640;8.148;2022-11-20T15:13:00;11.50;58.00
19248;DHT22;9758;48.640;8.148;2022-11-20T15:15:31;11.50;58.00
19248;DHT22;9758;48.640;8.148;2022-11-20T15:17:59;11.40;57.90
19248;DHT22;9758;48.640;8.148;2022-11-20T15:20:28;11.40;57.90
19248;DHT22;9758;48.640;8.148;2022-11-20T15:22:56;11.30;58.00
19248;DHT22;9758;48.640;8.148;2022-11-20T15:25:23;11.30;57.90
19248;DHT22;9758;48.640;8.148;2022-11-20T15:27:53;11.30;58.00
19248;DHT22;9758;48.640;8.148;2022-11-20T15:30:23;11.20;57.90
19248;DHT22;9758;48.640;8.148;2022-11-20T15:32:50;11.20;57.70
19248;DHT22;9758;48.640;8.148;2022-11-20T15:35:16;11.10;57.80
19248;DHT22;9758;48.640;8.148;2022-11-20T15:37:43;11.10;57.90
19248;DHT22;9758;48.640;8.148;2022-11-20T15:40:11;11.00;58.00
19248;DHT22;9758;48.640;8.148;2022-11-20T15:42:38;11.00;57.80
19248;DHT22;9758;48.640;8.148;2022-11-20T15:45:27;11.00;58.00
19248;DHT22;9758;48.640;8.148;2022-11-20T15:47:55;11.00;58.10
19248;DHT22;9758;48.640;8.148;2022-11-20T15:50:27;11.00;58.00
19248;DHT22;9758;48.640;8.148;2022-11-20T15:52:55;10.90;58.10
19248;DHT22;9758;48.640;8.148;2022-11-20T15:55:22;10.90;58.20
19248;DHT22;9758;48.640;8.148;2022-11-20T15:57:49;10.90;58.20
19248;DHT22;9758;48.640;8.148;2022-11-20T16:00:16;10.90;58.00
19248;DHT22;9758;48.640;8.148;2022-11-20T16:02:45;10.90;58.20
19248;DHT22;9758;48.640;8.148;2022-11-20T16:05:12;10.90;58.20
19248;DHT22;9758;48.640;8.148;2022-11-20T16:07:50;11.00;58.30
19248;DHT22;9758;48.640;8.148;2022-11-20T16:10:17;11.00;58.20
19248;DHT22;9758;48.640;8.148;2022-11-20T16:12:50;10.90;58.10
19248;DHT22;9758;48.640;8.148;2022-11-20T16:15:44;10.90;58.10